Time;durP1;ratioP1;P1;durP2;ratioP2;P2;SDS_P1;SDS_P2;PMS_P1;PMS_P2;Temp;Humidity;BMP_temperature;BMP_pressure;BME280_temperature;BME280_humidity;BME280_pressure;Samples;Min_cycle;Max_cycle;Signal;HPM_P1;HPM_P2
2022/08/17 00:01:06;;;;;;;17.37;11.83;;;;;;;19.30;64.46;100053.30;1760174;81;21553;-75
2022/08/17 00:03:39;;;;;;;16.10;12.20;;;;;;;19.23;64.55;100045.30;1757569;80;20991;-75
2022/08/17 00:06:12;;;;;;;13.58;11.08;;;;;;;19.21;64.68;100043.91;1761535;80;21023;-75
2022/08/17 00:08:45;;;;;;;20.30;12.47;;;;;;;19.19;64.77;100053.59;1772321;79;21047;-75
2022/08/17 00:11:15;;;;;;;15.55;11.90;;;;;;;19.14;64.89;100054.00;1760042;80;21132;-76
2022/08/17 00:13:45;;;;;;;19.32;13.18;;;;;;;19.12;65.01;100052.88;1735467;82;20974;-75
2022/08/17 00:16:16;;;;;;;22.42;13.98;;;;;;;19.13;65.12;100051.83;1706136;82;20990;-75
2022/08/17 00:18:42;;;;;;;17.25;13.75;;;;;;;19.15;65.19;100051.58;1764227;80;21076;-75
2022/08/17 00:21:09;;;;;;;16.57;12.98;;;;;;;19.14;65.26;100054.80;1751966;81;21683;-75
2022/08/17 00:23:35;;;;;;;19.27;14.18;;;;;;;19.05;65.33;100056.22;1765198;81;21803;-75
2022/08/17 00:26:01;;;;;;;15.28;13.38;;;;;;;19.01;65.44;100051.50;1763093;80;20992;-75
2022/08/17 00:28:28;;;;;;;18.95;13.40;;;;;;;18.98;65.50;100050.09;1783248;80;21042;-75
2022/08/17 00:30:54;;;;;;;17.73;13.50;;;;;;;18.94;65.61;100052.97;1765028;81;21474;-75
2022/08/17 00:33:24;;;;;;;16.23;12.15;;;;;;;18.84;65.70;100048.66;1781590;80;20997;-75
2022/08/17 00:35:51;;;;;;;16.30;13.18;;;;;;;18.81;65.83;100058.59;1759743;79;21106;-75
2022/08/17 00:38:17;;;;;;;14.73;12.55;;;;;;;18.78;65.96;100050.42;1763184;81;20989;-75
2022/08/17 00:40:50;;;;;;;17.25;11.97;;;;;;;18.76;66.07;100053.87;1738056;81;21064;-75
2022/08/17 00:43:56;;;;;;;14.30;12.25;;;;;;;18.73;66.20;100051.64;1749075;81;21013;-75
2022/08/17 00:46:30;;;;;;;15.63;12.20;;;;;;;18.70;66.32;100050.75;1725185;81;20977;-76
2022/08/17 00:48:56;;;;;;;13.90;11.80;;;;;;;18.71;66.44;100054.28;1737259;82;21822;-75
2022/08/17 00:51:39;;;;;;;15.35;11.65;;;;;;;18.73;66.50;100052.98;1776501;80;20970;-75
2022/08/17 00:54:14;;;;;;;17.07;12.50;;;;;;;18.73;66.54;100051.64;1779959;80;20975;-75
2022/08/17 00:56:57;;;;;;;22.52;13.30;;;;;;;18.75;66.63;100044.66;1770822;80;20983;-75
2022/08/17 00:59:26;;;;;;;17.25;12.47;;;;;;;18.77;66.69;100050.64;1780635;80;20971;-76
2022/08/17 01:01:52;;;;;;;14.68;11.68;;;;;;;18.77;66.72;100045.24;1767219;80;21574;-76
2022/08/17 01:04:19;;;;;;;21.75;12.47;;;;;;;18.72;66.78;100046.45;1780588;80;21539;-76
2022/08/17 01:06:47;;;;;;;19.07;13.40;;;;;;;18.68;66.87;100041.23;1779721;80;20987;-76
2022/08/17 01:09:13;;;;;;;15.23;12.68;;;;;;;18.65;66.93;100038.45;1771707;80;20964;-76
2022/08/17 01:11:39;;;;;;;15.58;12.73;;;;;;;18.62;67.00;100035.39;1748695;81;21315;-76
2022/08/17 01:14:07;;;;;;;18.40;13.43;;;;;;;18.57;67.09;100031.22;1781279;80;21135;-76
2022/08/17 01:16:34;;;;;;;14.13;12.63;;;;;;;18.54;67.20;100039.79;1762534;81;20953;-76
2022/08/17 01:19:04;;;;;;;13.08;10.78;;;;;;;18.50;67.28;100042.09;1770936;80;21039;-76
2022/08/17 01:21:52;;;;;;;14.63;12.07;;;;;;;18.49;67.36;100051.23;1741243;80;20987;-76
2022/08/17 01:24:18;;;;;;;13.60;11.53;;;;;;;18.44;67.41;100051.09;1755506;81;20981;-75
2022/08/17 01:26:44;;;;;;;14.25;11.65;;;;;;;18.36;67.51;100054.14;1768169;81;21462;-76
2022/08/17 01:29:11;;;;;;;14.90;11.80;;;;;;;18.34;67.60;100053.00;1771562;81;20961;-75
2022/08/17 01:31:44;;;;;;;15.80;12.15;;;;;;;18.38;67.66;100055.55;1755656;81;21028;-75
2022/08/17 01:34:11;;;;;;;13.32;11.88;;;;;;;18.38;67.72;100052.02;1722055;81;20997;-76
2022/08/17 01:36:39;;;;;;;15.40;12.85;;;;;;;18.38;67.76;100044.75;1771160;81;21045;-76
2022/08/17 01:39:06;;;;;;;15.30;11.48;;;;;;;18.34;67.83;100045.42;1791235;79;21175;-76
2022/08/17 01:41:32;;;;;;;16.25;12.18;;;;;;;18.30;67.92;100042.36;1779402;79;21435;-75
2022/08/17 01:44:01;;;;;;;14.15;12.65;;;;;;;18.32;67.98;100044.84;1787921;80;21508;-75
2022/08/17 01:46:31;;;;;;;18.13;14.30;;;;;;;18.33;68.01;100048.64;1763086;81;20981;-75
2022/08/17 01:48:57;;;;;;;24.87;16.12;;;;;;;18.24;68.07;100031.13;1787835;80;21714;-76
2022/08/17 01:51:31;;;;;;;17.70;13.95;;;;;;;18.37;68.15;100051.71;1782094;80;21224;-76
2022/08/17 01:53:56;;;;;;;19.82;15.13;;;;;;;18.37;68.19;100058.46;1762171;80;21034;-76
2022/08/17 01:56:23;;;;;;;20.30;14.70;;;;;;;18.30;68.29;100051.80;1789621;80;20975;-76
2022/08/17 01:58:49;;;;;;;18.12;15.40;;;;;;;18.33;68.40;100052.70;1789181;80;21481;-75
2022/08/17 02:01:18;;;;;;;17.07;15.00;;;;;;;18.27;68.49;100055.48;1778003;80;21546;-76
2022/08/17 02:03:45;;;;;;;21.25;15.95;;;;;;;18.27;68.58;100058.19;1788449;80;21476;-76
2022/08/17 02:06:11;;;;;;;17.45;15.15;;;;;;;18.24;68.70;100052.73;1787284;80;21038;-76
2022/08/17 02:08:37;;;;;;;22.20;15.23;;;;;;;18.26;68.76;100057.36;1787662;80;20980;-76
2022/08/17 02:11:10;;;;;;;17.87;14.23;;;;;;;18.21;68.85;100050.49;1786813;80;20988;-76
2022/08/17 02:13:36;;;;;;;19.50;14.58;;;;;;;18.17;68.96;100051.16;1789352;80;20995;-75
2022/08/17 02:16:03;;;;;;;17.15;13.38;;;;;;;18.12;69.08;100047.79;1786535;80;21089;-75
2022/08/17 02:18:29;;;;;;;18.25;13.78;;;;;;;18.12;69.18;100049.69;1787877;80;20991;-75
2022/08/17 02:20:55;;;;;;;21.95;14.18;;;;;;;18.07;69.28;100044.97;1782488;80;21030;-75
2022/08/17 02:23:22;;;;;;;21.82;13.45;;;;;;;18.04;69.36;100048.13;1783158;80;21532;-75
2022/08/17 02:25:48;;;;;;;16.67;13.98;;;;;;;18.06;69.48;100048.70;1789218;80;21035;-76
2022/08/17 02:28:14;;;;;;;17.37;13.85;;;;;;;18.03;69.54;100049.16;1788507;80;21125;-75
2022/08/17 02:30:42;;;;;;;19.95;15.00;;;;;;;18.04;69.61;100045.94;1770161;80;21141;-76
2022/08/17 02:33:08;;;;;;;22.82;14.98;;;;;;;18.01;69.70;100043.70;1790782;80;20969;-75
2022/08/17 02:35:36;;;;;;;21.25;14.35;;;;;;;18.00;69.76;100045.57;1789437;80;20967;-75
2022/08/17 02:38:04;;;;;;;21.10;15.43;;;;;;;18.00;69.82;100036.13;1775812;80;20992;-76
2022/08/17 02:40:30;;;;;;;26.00;17.42;;;;;;;18.01;69.87;100035.61;1787104;80;21087;-75
2022/08/17 02:42:56;;;;;;;23.67;17.73;;;;;;;17.98;69.89;100033.37;1771264;80;20979;-76
2022/08/17 02:45:23;;;;;;;18.65;15.03;;;;;;;17.90;69.94;100038.54;1774926;80;21011;-76
2022/08/17 02:47:49;;;;;;;18.92;14.30;;;;;;;17.82;70.04;100036.97;1790290;80;20997;-76
2022/08/17 02:50:19;;;;;;;15.68;12.60;;;;;;;17.78;70.15;100041.68;1790790;79;21000;-76
2022/08/17 02:52:45;;;;;;;18.52;13.15;;;;;;;17.75;70.25;100039.44;1790760;80;21209;-75
2022/08/17 02:55:24;;;;;;;16.32;14.23;;;;;;;17.70;70.33;100037.93;1745374;81;20958;-75
2022/08/17 02:57:50;;;;;;;14.53;12.85;;;;;;;17.72;70.42;100041.24;1764241;81;20942;-75
2022/08/17 03:00:27;;;;;;;19.87;13.03;;;;;;;17.70;70.46;100048.72;1753012;81;20962;-75
2022/08/17 03:02:55;;;;;;;18.65;13.00;;;;;;;17.62;70.53;100044.47;1768962;80;21074;-76
2022/08/17 03:05:23;;;;;;;17.87;14.63;;;;;;;17.60;70.63;100048.41;1763651;81;21227;-75
2022/08/17 03:07:49;;;;;;;21.45;14.55;;;;;;;17.65;70.69;100052.62;1763527;81;21270;-75
2022/08/17 03:10:16;;;;;;;19.35;14.23;;;;;;;17.65;70.74;100053.98;1744451;81;20994;-75
2022/08/17 03:12:42;;;;;;;16.45;13.43;;;;;;;17.65;70.77;100050.77;1755753;81;21018;-75
2022/08/17 03:15:16;;;;;;;19.65;14.63;;;;;;;17.62;70.83;100050.38;1752406;81;20986;-75
2022/08/17 03:17:43;;;;;;;20.15;15.53;;;;;;;17.65;70.90;100051.28;1738442;82;21161;-75
2022/08/17 03:20:10;;;;;;;16.93;13.70;;;;;;;17.66;70.90;100048.89;1763624;81;21511;-75
2022/08/17 03:22:40;;;;;;;18.98;14.20;;;;;;;17.59;70.93;100047.59;1765031;80;20969;-76
2022/08/17 03:25:08;;;;;;;15.30;13.70;;;;;;;17.56;71.03;100049.39;1766022;80;20974;-76
2022/08/17 03:27:35;;;;;;;15.65;13.65;;;;;;;17.56;71.13;100049.91;1763942;81;21008;-75
2022/08/17 03:30:03;;;;;;;18.07;14.07;;;;;;;17.56;71.18;100055.30;1764884;80;21954;-75
2022/08/17 03:32:29;;;;;;;18.05;14.60;;;;;;;17.53;71.23;100059.77;1771789;80;20928;-76
2022/08/17 03:34:59;;;;;;;20.45;15.10;;;;;;;17.54;71.27;100057.37;1783542;80;21006;-75
2022/08/17 03:37:25;;;;;;;19.90;15.38;;;;;;;17.53;71.32;100061.11;1757020;80;21506;-76
2022/08/17 03:39:53;;;;;;;18.98;15.95;;;;;;;17.51;71.36;100068.61;1778351;80;21003;-75
2022/08/17 03:42:23;;;;;;;21.48;17.80;;;;;;;17.44;71.43;100066.81;1774691;80;21022;-75
2022/08/17 03:44:51;;;;;;;23.55;16.48;;;;;;;17.40;71.50;100071.00;1776439;80;21073;-75
2022/08/17 03:56:41;;;;;;;23.70;16.15;;;;;;;17.40;71.64;100076.39;1783390;80;21018;-75
2022/08/17 03:58:16;;;;;;;26.60;19.65;;;;;;;17.55;71.71;100077.91;1783710;80;21003;-75
2022/08/17 04:00:45;;;;;;;23.38;19.77;;;;;;;17.61;71.71;100082.44;1783504;80;20975;-75
2022/08/17 04:03:10;;;;;;;25.40;19.52;;;;;;;17.68;71.69;100085.89;1779855;80;20995;-75
2022/08/17 04:05:36;;;;;;;23.10;19.65;;;;;;;17.74;71.68;100084.98;1783273;80;20986;-75
2022/08/17 04:08:02;;;;;;;26.07;19.65;;;;;;;17.80;71.63;100089.51;1783912;80;21859;-75
2022/08/17 04:10:29;;;;;;;24.02;18.57;;;;;;;17.84;71.64;100085.28;1780264;80;21233;-75
2022/08/17 04:12:55;;;;;;;25.88;19.50;;;;;;;17.88;71.60;100085.97;1730400;81;21009;-76
2022/08/17 04:15:21;;;;;;;23.52;18.40;;;;;;;17.86;71.61;100088.60;1759533;79;20902;-76
2022/08/17 04:17:47;;;;;;;33.58;19.87;;;;;;;17.90;71.64;100093.85;1763910;81;21577;-75
2022/08/17 04:20:15;;;;;;;22.27;19.17;;;;;;;17.94;71.64;100093.70;1758289;81;21689;-75
2022/08/17 04:23:10;;;;;;;26.62;19.77;;;;;;;18.03;71.62;100100.44;1763521;81;20976;-75
2022/08/17 04:25:38;;;;;;;34.38;20.97;;;;;;;18.11;71.63;100100.14;1763982;81;21548;-75
2022/08/17 04:28:04;;;;;;;31.48;21.77;;;;;;;18.35;71.76;100097.86;1762574;81;20989;-76
2022/08/17 04:30:32;;;;;;;27.62;20.17;;;;;;;18.94;71.81;100098.39;1768412;80;20988;-76
2022/08/17 04:33:08;;;;;;;24.20;19.90;;;;;;;19.84;71.66;100098.91;1768987;80;21763;-76
2022/08/17 04:35:44;;;;;;;24.30;18.77;;;;;;;20.80;71.14;100095.98;1783671;80;20974;-76
2022/08/17 04:38:13;;;;;;;28.83;21.45;;;;;;;21.57;70.44;100093.50;1781372;80;20950;-76
2022/08/17 04:43:25;;;;;;;28.70;20.10;;;;;;;22.43;69.25;100096.81;1732513;82;21006;-75
2022/08/17 04:45:57;;;;;;;27.55;19.45;;;;;;;22.81;68.52;100098.59;1783812;80;22113;-75
2022/08/17 04:48:26;;;;;;;39.88;21.17;;;;;;;23.17;67.80;100096.49;1778100;80;20968;-75
2022/08/17 04:50:52;;;;;;;33.10;20.43;;;;;;;23.21;66.72;100094.07;1774939;80;20979;-75
2022/08/17 04:53:18;;;;;;;32.00;20.20;;;;;;;22.91;66.30;100100.05;1783464;80;20871;-76
2022/08/17 04:55:45;;;;;;;33.05;21.37;;;;;;;23.31;66.45;100101.78;1782897;80;21006;-75
2022/08/17 04:58:11;;;;;;;49.27;20.55;;;;;;;23.83;65.85;100099.16;1765240;80;21521;-76
2022/08/17 05:00:37;;;;;;;36.93;19.48;;;;;;;24.46;65.10;100097.80;1783271;79;21822;-75
2022/08/17 05:03:03;;;;;;;27.60;18.65;;;;;;;25.03;64.16;100099.86;1782996;80;21058;-76
2022/08/17 05:05:32;;;;;;;23.87;19.05;;;;;;;25.49;62.88;100097.11;1782517;80;20954;-76
2022/08/17 05:08:01;;;;;;;26.00;19.50;;;;;;;25.49;61.66;100097.94;1731707;81;21289;-76
2022/08/17 05:10:30;;;;;;;30.50;19.40;;;;;;;25.28;61.29;100101.23;1742952;82;21798;-76
2022/08/17 05:13:05;;;;;;;44.10;36.68;;;;;;;24.99;61.34;100106.95;1743385;82;28231;-76
2022/08/17 05:15:34;;;;;;;26.05;22.02;;;;;;;24.75;61.37;100107.16;1775314;80;20950;-76
2022/08/17 05:18:01;;;;;;;31.37;20.92;;;;;;;24.57;61.41;100111.75;1766799;80;20996;-76
2022/08/17 05:20:27;;;;;;;24.27;19.40;;;;;;;24.46;61.35;100120.98;1761910;79;21038;-76
2022/08/17 05:22:59;;;;;;;39.25;22.40;;;;;;;24.45;61.24;100116.64;1760130;81;21825;-76
2022/08/17 05:25:29;;;;;;;21.95;19.32;;;;;;;24.52;61.07;100113.11;1763129;81;20985;-76
2022/08/17 05:27:55;;;;;;;32.80;21.12;;;;;;;24.63;60.80;100113.42;1788420;79;21027;-76
2022/08/17 05:30:21;;;;;;;25.75;22.70;;;;;;;24.73;60.58;100103.89;1788684;79;20984;-76
2022/08/17 05:32:53;;;;;;;29.42;23.55;;;;;;;24.83;60.30;100104.77;1788332;80;21044;-76
2022/08/17 05:35:19;;;;;;;41.85;28.92;;;;;;;24.96;60.08;100104.77;1788927;80;22311;-76
2022/08/17 05:37:45;;;;;;;44.95;36.55;;;;;;;25.12;59.84;100105.04;1787557;80;20959;-76
2022/08/17 05:40:12;;;;;;;49.08;35.75;;;;;;;25.42;59.53;100098.77;1782383;80;21626;-76
2022/08/17 05:42:38;;;;;;;39.33;31.85;;;;;;;25.37;59.22;100096.59;1789157;80;21432;-76
2022/08/17 05:45:05;;;;;;;34.00;30.30;;;;;;;25.47;59.06;100100.68;1788453;80;20948;-77
2022/08/17 05:47:31;;;;;;;35.80;29.32;;;;;;;25.58;58.82;100097.67;1789369;79;21460;-76
2022/08/17 05:49:57;;;;;;;35.33;30.68;;;;;;;25.53;58.62;100098.23;1784082;80;21050;-76
2022/08/17 05:52:51;;;;;;;36.05;29.82;;;;;;;25.70;58.49;100105.58;1783436;80;20857;-76
2022/08/17 05:55:41;;;;;;;34.85;29.80;;;;;;;25.77;58.32;100107.48;1760356;81;20978;-76
2022/08/17 05:58:15;;;;;;;33.75;27.20;;;;;;;25.92;58.14;100106.08;1752574;81;20974;-76
2022/08/17 06:01:10;;;;;;;30.05;26.35;;;;;;;26.12;57.93;100107.37;1742692;79;21840;-76
2022/08/17 06:04:13;;;;;;;32.40;26.68;;;;;;;26.14;57.68;100110.63;1743031;81;21040;-76
2022/08/17 06:06:52;;;;;;;38.10;29.67;;;;;;;26.31;57.39;100108.42;1784150;78;21352;-71
2022/08/17 06:09:25;;;;;;;;;;;;;;;26.61;57.13;100103.88;1787613;80;21038;-71
2022/08/17 06:12:05;;;;;;;29.12;26.02;;;;;;;26.78;56.71;100112.53;1777110;80;20140;-71
2022/08/17 06:14:46;;;;;;;30.15;26.70;;;;;;;26.95;56.51;100107.51;1789810;78;21855;-71
2022/08/17 06:17:16;;;;;;;37.23;28.15;;;;;;;27.09;56.15;100111.23;1777968;78;20975;-71
2022/08/17 06:19:54;;;;;;;262.75;52.85;;;;;;;27.22;55.88;100109.78;1788316;78;21023;-71
2022/08/17 06:22:22;;;;;;;38.55;28.50;;;;;;;27.37;55.53;100111.58;1783836;80;20972;-71
2022/08/17 06:25:06;;;;;;;35.00;28.17;;;;;;;27.50;55.22;100117.23;1761261;80;21506;-71
2022/08/17 06:27:48;;;;;;;39.03;25.80;;;;;;;27.69;55.02;100115.97;1787364;79;21777;-71
2022/08/17 06:30:20;;;;;;;37.28;26.05;;;;;;;27.86;54.74;100114.96;1768459;80;21535;-71
2022/08/17 06:32:48;;;;;;;30.20;25.55;;;;;;;27.88;54.49;100122.33;1785811;78;20983;-71
2022/08/17 06:35:18;;;;;;;29.48;21.45;;;;;;;28.02;54.26;100115.59;1789961;79;21027;-71
2022/08/17 06:37:59;;;;;;;31.75;22.55;;;;;;;28.09;53.94;100119.66;1759823;80;21045;-71
2022/08/17 06:41:00;;;;;;;25.85;21.30;;;;;;;28.02;53.61;100117.78;1787825;80;21837;-71
2022/08/17 06:43:47;;;;;;;29.70;22.55;;;;;;;28.15;53.41;100130.82;1787049;80;21046;-71
2022/08/17 06:46:36;;;;;;;26.33;23.15;;;;;;;28.24;53.10;100129.08;1787197;78;20951;-72
2022/08/17 06:49:24;;;;;;;;;;;;;;;28.28;52.79;100131.50;1764451;80;21501;-72
2022/08/17 06:52:28;;;;;;;33.47;20.80;;;;;;;28.40;52.53;100132.98;1755222;80;20175;-71
2022/08/17 06:55:08;;;;;;;25.80;20.88;;;;;;;28.62;52.27;100134.63;1790026;78;21727;-72
2022/08/17 06:57:44;;;;;;;79.12;27.85;;;;;;;28.71;51.92;100139.76;1751895;80;20982;-71
2022/08/17 07:00:18;;;;;;;22.27;19.45;;;;;;;28.84;51.63;100136.27;1753016;81;21334;-72
2022/08/17 07:03:14;;;;;;;31.33;20.82;;;;;;;29.04;51.40;100141.45;1760908;81;21013;-72
2022/08/17 07:05:51;;;;;;;24.47;18.25;;;;;;;29.20;51.05;100145.58;1747848;80;21687;-72
2022/08/17 07:08:38;;;;;;;21.30;17.12;;;;;;;29.24;50.76;100143.86;1730582;81;21875;-71
2022/08/17 07:11:18;;;;;;;25.50;18.20;;;;;;;29.16;50.44;100144.56;1749248;81;21054;-72
2022/08/17 07:14:04;;;;;;;22.70;16.02;;;;;;;29.21;50.36;100143.65;1746313;80;21542;-72
2022/08/17 07:16:41;;;;;;;21.85;18.42;;;;;;;29.40;50.09;100138.98;1731529;81;21084;-72
2022/08/17 07:19:07;;;;;;;26.17;18.90;;;;;;;29.47;49.91;100153.70;1718701;82;21006;-72
2022/08/17 07:21:41;;;;;;;26.90;19.37;;;;;;;29.63;49.64;100159.19;1739038;81;21778;-78
2022/08/17 07:24:19;;;;;;;23.42;16.45;;;;;;;29.77;49.44;100158.66;1742547;82;20997;-78
2022/08/17 07:26:48;;;;;;;16.93;14.90;;;;;;;29.84;49.11;100157.73;1745536;81;21018;-78
2022/08/17 07:29:18;;;;;;;23.22;18.30;;;;;;;30.03;48.97;100148.86;1741855;81;21462;-79
2022/08/17 07:31:44;;;;;;;21.25;15.80;;;;;;;30.15;48.65;100150.53;1732186;81;21415;-78
2022/08/17 07:34:13;;;;;;;21.40;17.45;;;;;;;30.29;48.39;100153.86;1734779;82;22711;-77
2022/08/17 07:36:41;;;;;;;24.45;18.80;;;;;;;30.34;48.08;100157.31;1741395;81;21006;-77
2022/08/17 07:39:08;;;;;;;21.48;18.50;;;;;;;30.43;47.91;100153.33;1742611;82;21051;-78
2022/08/17 07:41:40;;;;;;;53.28;19.23;;;;;;;30.38;47.80;100156.96;1728894;82;21471;-77
2022/08/17 07:44:13;;;;;;;37.45;19.85;;;;;;;30.47;47.75;100155.72;1726544;82;21010;-77
2022/08/17 07:49:38;;;;;;;20.70;16.67;;;;;;;30.39;47.68;100164.66;1736402;82;20994;-77
2022/08/17 07:52:26;;;;;;;52.78;18.05;;;;;;;30.43;47.54;100162.95;1740874;81;21511;-78
2022/08/17 07:54:53;;;;;;;24.00;14.98;;;;;;;30.50;47.57;100157.86;1712975;81;21008;-79
2022/08/17 07:57:26;;;;;;;21.40;15.35;;;;;;;30.60;47.37;100156.26;1724147;81;21620;-80
2022/08/17 08:00:08;;;;;;;15.58;14.07;;;;;;;30.61;47.32;100160.66;1750272;80;22998;-80
2022/08/17 08:02:37;;;;;;;37.65;16.25;;;;;;;30.80;47.36;100154.42;1756574;80;21517;-80
2022/08/17 08:05:25;;;;;;;18.02;13.00;;;;;;;31.00;47.20;100161.46;1720492;81;21026;-80
2022/08/17 08:07:59;;;;;;;16.25;12.73;;;;;;;31.02;47.05;100161.39;1744651;81;21060;-80
2022/08/17 08:10:41;;;;;;;20.80;14.63;;;;;;;31.09;46.74;100163.16;1721950;81;21502;-80
2022/08/17 08:13:23;;;;;;;18.50;13.10;;;;;;;31.18;46.38;100164.03;1717579;82;22704;-80
2022/08/17 08:15:52;;;;;;;30.60;25.00;;;;;;;31.32;46.30;100165.34;1749007;80;20979;-77
2022/08/17 08:18:32;;;;;;;17.75;13.03;;;;;;;31.36;46.19;100160.02;1757320;80;21621;-77
2022/08/17 08:21:08;;;;;;;16.85;12.23;;;;;;;31.37;45.98;100164.41;1755159;80;21579;-80
2022/08/17 08:23:39;;;;;;;13.70;12.03;;;;;;;31.39;45.58;100162.14;1753573;80;21049;-80
2022/08/17 08:26:14;;;;;;;14.15;12.70;;;;;;;31.50;45.29;100166.28;1753398;81;21648;-80
2022/08/17 08:29:18;;;;;;;13.93;12.60;;;;;;;31.52;44.93;100157.18;1760821;80;20909;-80
2022/08/17 08:32:27;;;;;;;16.45;12.07;;;;;;;31.57;44.47;100163.92;1762109;80;21016;-81
2022/08/17 08:35:01;;;;;;;16.65;12.05;;;;;;;31.63;44.12;100169.59;1694134;84;21061;-80
2022/08/17 08:37:44;;;;;;;17.62;13.35;;;;;;;31.74;43.96;100159.89;1750732;80;20994;-80
2022/08/17 08:40:43;;;;;;;14.75;12.10;;;;;;;31.93;43.82;100159.11;1750818;80;22554;-81
2022/08/17 08:43:35;;;;;;;13.32;10.60;;;;;;;31.99;43.49;100167.49;1766928;79;21491;-81
2022/08/17 08:46:09;;;;;;;14.30;10.72;;;;;;;32.06;42.98;100162.36;1781288;79;21000;-81
2022/08/17 08:48:54;;;;;;;16.57;10.78;;;;;;;32.03;42.66;100162.97;1783137;79;20990;-81
2022/08/17 08:51:37;;;;;;;12.40;9.00;;;;;;;32.02;42.43;100160.55;1772097;79;21037;-81
2022/08/17 08:54:33;;;;;;;9.50;8.30;;;;;;;32.14;42.16;100158.83;1753773;79;21822;-81
2022/08/17 08:57:20;;;;;;;11.48;8.40;;;;;;;32.11;41.77;100162.80;1763950;79;21373;-82
2022/08/17 09:00:11;;;;;;;19.75;9.13;;;;;;;32.27;41.52;100159.02;1786888;79;21016;-81
2022/08/17 09:03:15;;;;;;;8.30;7.22;;;;;;;32.46;41.20;100158.20;1768123;79;21470;-81
2022/08/17 09:05:54;;;;;;;10.48;7.22;;;;;;;32.49;40.80;100154.80;1770809;81;21008;-81
2022/08/17 09:08:50;;;;;;;7.17;6.47;;;;;;;32.53;40.47;100159.36;1761382;79;22469;-81
2022/08/17 09:11:51;;;;;;;8.35;6.50;;;;;;;32.55;40.10;100156.27;1781997;78;38283;-80
2022/08/17 09:14:39;;;;;;;10.40;8.90;;;;;;;32.70;39.79;100148.94;1752349;80;21014;-81
2022/08/17 09:17:13;;;;;;;26.05;9.15;;;;;;;32.65;39.29;100160.16;1771049;80;21526;-80
2022/08/17 09:20:06;;;;;;;11.10;8.25;;;;;;;32.57;39.06;100152.06;1773642;80;21022;-81
2022/08/17 09:22:41;;;;;;;10.90;7.33;;;;;;;32.60;38.87;100152.02;1760491;80;21884;-81
2022/08/17 09:25:22;;;;;;;17.32;7.60;;;;;;;32.57;38.76;100145.72;1778175;80;21045;-81
2022/08/17 09:28:19;;;;;;;11.85;7.00;;;;;;;32.67;38.44;100142.68;1774023;79;21394;-81
2022/08/17 09:30:49;;;;;;;10.00;6.83;;;;;;;32.66;38.13;100146.57;1771329;79;21077;-81
2022/08/17 09:33:21;;;;;;;16.75;7.53;;;;;;;32.69;37.87;100140.39;1783599;80;21054;-81
2022/08/17 09:35:58;;;;;;;10.75;6.75;;;;;;;32.77;37.67;100142.37;1759121;80;21721;-81
2022/08/17 09:39:06;;;;;;;11.28;6.92;;;;;;;32.72;37.20;100139.78;1772965;80;21499;-81
2022/08/17 09:41:41;;;;;;;7.10;6.40;;;;;;;32.60;36.85;100142.34;1757123;80;21013;-81
2022/08/17 09:44:27;;;;;;;7.30;5.40;;;;;;;32.42;36.47;100138.70;1776754;80;21038;-81
2022/08/17 09:47:02;;;;;;;6.28;5.67;;;;;;;32.39;36.41;100141.29;1767062;79;21497;-81
2022/08/17 09:49:32;;;;;;;69.22;11.12;;;;;;;32.52;36.31;100138.39;1757305;79;22734;-81
2022/08/17 09:52:19;;;;;;;13.32;7.08;;;;;;;32.57;36.08;100134.11;1763839;79;21564;-81
2022/08/17 09:54:45;;;;;;;6.65;5.17;;;;;;;32.64;35.95;100140.00;1778232;80;21026;-81
2022/08/17 09:58:06;;;;;;;8.50;5.42;;;;;;;32.66;35.57;100152.09;1778106;80;21342;-81
2022/08/17 10:00:35;;;;;;;16.10;5.80;;;;;;;32.61;35.51;100145.36;1751879;79;21092;-81
2022/08/17 10:03:34;;;;;;;10.88;6.42;;;;;;;32.69;35.29;100132.70;1778186;79;21818;-80
2022/08/17 10:06:12;;;;;;;9.28;6.12;;;;;;;32.50;35.25;100131.58;1758174;81;20957;-80
2022/08/17 10:09:20;;;;;;;11.65;6.42;;;;;;;32.28;35.28;100132.49;1762850;79;20933;-81
2022/08/17 10:15:04;;;;;;;9.38;5.87;;;;;;;31.92;35.64;100132.64;1765872;80;21033;-81
2022/08/17 10:17:55;;;;;;;13.70;5.50;;;;;;;31.73;35.76;100134.02;1767626;80;21740;-81
2022/08/17 10:20:42;;;;;;;18.25;7.55;;;;;;;31.49;35.79;100131.59;1783731;78;21226;-81
2022/08/17 10:26:13;;;;;;;7.33;5.58;;;;;;;31.19;35.80;100135.35;1779942;80;21446;-81
2022/08/17 10:29:01;;;;;;;8.23;5.42;;;;;;;31.04;35.85;100130.20;1781204;78;21014;-81
2022/08/17 10:31:41;;;;;;;19.95;5.67;;;;;;;30.96;35.95;100139.20;1772947;78;21584;-80
2022/08/17 10:34:36;;;;;;;8.05;5.97;;;;;;;30.97;36.01;100136.70;1727022;81;21457;-81
2022/08/17 10:37:10;;;;;;;10.75;5.30;;;;;;;30.95;36.05;100140.31;1753463;80;20995;-81
2022/08/17 10:40:23;;;;;;;8.15;6.42;;;;;;;30.81;36.23;100139.54;1742756;80;22175;-81
2022/08/17 10:43:18;;;;;;;15.55;6.40;;;;;;;30.76;36.53;100142.95;1749062;80;21039;-81
2022/08/17 10:46:01;;;;;;;10.93;6.85;;;;;;;30.79;36.85;100141.77;1676004;84;22672;-81
2022/08/17 10:48:30;;;;;;;15.25;6.42;;;;;;;30.76;37.17;100138.27;1741297;79;20990;-81
2022/08/17 10:51:01;;;;;;;7.92;5.55;;;;;;;30.80;37.34;100135.15;1761051;79;21048;-81
2022/08/17 10:53:44;;;;;;;17.17;7.28;;;;;;;30.82;37.37;100134.30;1774097;80;21015;-81
2022/08/17 10:56:17;;;;;;;6.72;6.12;;;;;;;30.88;37.29;100137.17;1761961;81;21056;-81
2022/08/17 10:58:58;;;;;;;6.85;5.92;;;;;;;30.90;37.22;100135.47;1779677;80;21771;-81
2022/08/17 11:01:42;;;;;;;7.20;6.50;;;;;;;30.77;37.45;100137.15;1783204;79;21042;-81
2022/08/17 11:04:38;;;;;;;6.55;5.95;;;;;;;30.50;37.81;100134.46;1778018;79;21032;-81
2022/08/17 11:07:15;;;;;;;7.42;6.12;;;;;;;30.41;38.09;100143.14;1755961;80;20973;-81
2022/08/17 11:10:08;;;;;;;8.55;5.83;;;;;;;30.43;38.24;100142.31;1743335;80;21556;-81
2022/08/17 11:12:46;;;;;;;8.38;5.87;;;;;;;30.50;38.18;100144.09;1768508;80;21817;-81
2022/08/17 11:15:32;;;;;;;6.50;5.90;;;;;;;30.55;37.96;100148.09;1758149;79;20977;-81
2022/08/17 11:18:10;;;;;;;8.73;5.15;;;;;;;30.55;37.78;100135.15;1777669;78;21288;-81
2022/08/17 11:21:10;;;;;;;7.20;5.22;;;;;;;30.57;37.84;100137.05;1781323;78;20998;-81
2022/08/17 11:24:13;;;;;;;7.10;5.37;;;;;;;30.74;37.98;100137.77;1780591;78;20982;-81
2022/08/17 11:26:46;;;;;;;9.58;4.97;;;;;;;31.12;37.82;100137.73;1767085;80;21938;-81
2022/08/17 11:29:37;;;;;;;9.73;5.22;;;;;;;31.56;37.27;100131.40;1743533;81;21366;-81
2022/08/17 11:32:10;;;;;;;7.45;5.33;;;;;;;31.80;36.85;100135.20;1714236;83;21069;-81
2022/08/17 11:34:36;;;;;;;11.75;4.97;;;;;;;32.09;36.44;100133.30;1741139;81;21474;-81
2022/08/17 11:37:25;;;;;;;11.18;5.05;;;;;;;32.24;36.02;100130.69;1781400;79;21480;-81
2022/08/17 11:40:06;;;;;;;9.90;4.83;;;;;;;32.37;35.77;100129.77;1753289;81;21842;-81
2022/08/17 11:43:07;;;;;;;6.20;4.45;;;;;;;32.34;35.43;100129.00;1752062;80;20991;-81
2022/08/17 11:46:16;;;;;;;7.83;4.62;;;;;;;32.36;35.04;100123.98;1703233;81;21082;-81
2022/08/17 11:52:04;;;;;;;7.58;4.67;;;;;;;32.38;34.24;100121.70;1749354;80;20988;-81
2022/08/17 11:54:40;;;;;;;4.90;4.00;;;;;;;32.48;33.93;100121.41;1778226;78;21810;-81
2022/08/17 11:57:30;;;;;;;6.35;3.77;;;;;;;32.47;33.39;100114.27;1788305;79;21019;-81
2022/08/17 12:00:05;;;;;;;4.20;3.80;;;;;;;32.45;33.06;100113.20;1778242;79;20982;-81
2022/08/17 12:02:33;;;;;;;5.55;4.37;;;;;;;32.62;32.85;100109.67;1786952;79;21049;-81
2022/08/17 12:05:17;;;;;;;4.28;3.87;;;;;;;32.68;32.57;100101.50;1785152;78;21033;-81
2022/08/17 12:07:48;;;;;;;10.28;4.30;;;;;;;32.68;32.31;100100.12;1768350;80;21755;-81
2022/08/17 12:10:16;;;;;;;4.50;4.10;;;;;;;32.63;32.13;100095.56;1756520;80;21048;-81
2022/08/17 12:12:42;;;;;;;6.87;4.42;;;;;;;32.49;32.04;100095.42;1757790;80;20946;-81